Time;durP1;ratioP1;P1;durP2;ratioP2;P2;SDS_P1;SDS_P2;PMS_P1;PMS_P2;Temp;Humidity;BMP_temperature;BMP_pressure;BME280_temperature;BME280_humidity;BME280_pressure;Samples;Min_cycle;Max_cycle;Signal;HPM_P1;HPM_P2
2021/12/25 00:00:22;;;;;;;2.60;0.43;;;-0.80;99.90;;;;;;5073988;28;20024;-80
2021/12/25 00:02:47;;;;;;;3.78;0.50;;;-0.80;99.90;;;;;;5074131;28;20047;-79
2021/12/25 00:05:14;;;;;;;1.17;0.65;;;-0.90;99.90;;;;;;5055564;28;20361;-79
2021/12/25 00:07:39;;;;;;;2.78;0.57;;;-1.00;99.90;;;;;;5074153;28;20032;-79
2021/12/25 00:10:06;;;;;;;1.02;0.30;;;-1.00;99.90;;;;;;5073600;28;20025;-79
2021/12/25 00:12:32;;;;;;;4.90;0.40;;;-1.10;99.90;;;;;;5073983;28;20020;-80
2021/12/25 00:14:59;;;;;;;1.27;0.38;;;-1.00;99.90;;;;;;5073636;28;20021;-79
2021/12/25 00:17:26;;;;;;;1.05;0.40;;;-1.10;99.90;;;;;;5073757;28;20012;-80
2021/12/25 00:19:53;;;;;;;1.98;0.50;;;-1.10;99.90;;;;;;5073388;28;20100;-79
2021/12/25 00:22:18;;;;;;;3.63;0.88;;;-1.10;99.90;;;;;;5073419;28;20029;-79
2021/12/25 00:24:45;;;;;;;5.82;0.60;;;-1.10;99.90;;;;;;5073609;28;20032;-79
2021/12/25 00:27:37;;;;;;;2.88;0.50;;;-1.00;99.90;;;;;;5073734;28;20028;-80
2021/12/25 00:30:57;;;;;;;1.42;0.50;;;-1.10;99.90;;;;;;5073053;28;20029;-79
2021/12/25 00:35:11;;;;;;;1.00;0.52;;;-1.20;99.90;;;;;;5073481;28;20460;-79
2021/12/25 00:37:37;;;;;;;0.85;0.40;;;-1.20;99.90;;;;;;5073217;28;20039;-79
2021/12/25 00:40:04;;;;;;;2.20;0.50;;;-1.20;99.90;;;;;;5073164;28;20022;-80
2021/12/25 00:42:30;;;;;;;1.73;0.70;;;-1.10;99.90;;;;;;5073323;28;20047;-79
2021/12/25 00:44:56;;;;;;;0.68;0.40;;;-1.20;99.90;;;;;;5065488;28;20491;-79
2021/12/25 00:47:22;;;;;;;0.55;0.38;;;-1.20;99.90;;;;;;5072710;28;20547;-79
2021/12/25 00:49:47;;;;;;;6.93;0.40;;;-1.20;99.90;;;;;;5072386;28;20017;-79
2021/12/25 00:52:13;;;;;;;2.42;0.30;;;-1.40;99.90;;;;;;5075567;28;20025;-79
2021/12/25 00:54:39;;;;;;;0.88;0.55;;;-1.40;99.90;;;;;;5093080;28;20028;-79
2021/12/25 00:57:05;;;;;;;1.33;0.82;;;-1.40;99.90;;;;;;5092618;28;20420;-80
2021/12/25 00:59:30;;;;;;;1.50;0.70;;;-1.40;99.90;;;;;;5093127;28;20369;-79
2021/12/25 01:01:58;;;;;;;3.30;0.30;;;-1.40;99.90;;;;;;5088431;28;20024;-80
2021/12/25 01:04:24;;;;;;;1.48;0.50;;;-1.40;99.90;;;;;;5073337;28;20024;-79
2021/12/25 01:06:49;;;;;;;1.02;0.45;;;-1.40;99.90;;;;;;5072754;28;20017;-80
2021/12/25 01:09:15;;;;;;;2.05;0.40;;;-1.50;99.90;;;;;;5072912;28;20393;-79
2021/12/25 01:11:43;;;;;;;1.92;0.40;;;-1.50;99.90;;;;;;5072706;28;20067;-80
2021/12/25 01:14:35;;;;;;;2.17;0.47;;;-1.50;99.90;;;;;;5072492;28;20115;-80
2021/12/25 01:29:53;;;;;;;1.85;0.45;;;-1.70;99.90;;;;;;5095051;28;20028;-80
2021/12/25 01:35:19;;;;;;;1.88;0.60;;;-1.70;99.90;;;;;;5095140;28;20032;-80
2021/12/25 01:38:00;;;;;;;0.65;0.20;;;-1.60;93.20;;;;;;5094503;28;20039;-79
2021/12/25 01:48:42;;;;;;;3.20;0.32;;;-1.90;99.90;;;;;;5094701;28;20053;-80
2021/12/25 01:51:08;;;;;;;0.30;0.20;;;-1.90;99.90;;;;;;5094252;28;20068;-80
2021/12/25 01:53:33;;;;;;;7.78;0.65;;;-1.90;99.90;;;;;;5094273;28;20114;-80
2021/12/25 01:56:00;;;;;;;1.88;0.43;;;-1.90;99.90;;;;;;5081616;28;20024;-80
2021/12/25 01:58:25;;;;;;;11.30;1.10;;;-1.80;99.90;;;;;;5092295;28;20024;-80
2021/12/25 02:00:54;;;;;;;7.68;1.00;;;-1.90;99.90;;;;;;5073517;28;20396;-80
2021/12/25 02:03:21;;;;;;;1.65;0.50;;;-2.00;99.90;;;;;;5073951;28;20028;-80
2021/12/25 02:05:48;;;;;;;3.42;0.88;;;-2.00;99.90;;;;;;5071505;28;20035;-80
2021/12/25 02:08:13;;;;;;;1.23;0.52;;;-1.90;83.20;;;;;;5071691;28;20550;-80
2021/12/25 02:10:53;;;;;;;0.90;0.30;;;-2.00;56.30;;;;;;5071207;28;20202;-80
2021/12/25 02:13:19;;;;;;;4.85;0.60;;;-2.10;25.10;;;;;;5071886;28;20427;-80
2021/12/25 02:15:51;;;;;;;2.72;0.93;;;-2.00;12.00;;;;;;5073626;28;20056;-80
2021/12/25 02:23:31;;;;;;;2.17;0.32;;;-2.20;47.30;;;;;;5073652;28;20035;-80
2021/12/25 02:25:57;;;;;;;4.53;0.60;;;-2.20;77.20;;;;;;5072055;28;20027;-80
2021/12/25 02:28:24;;;;;;;1.67;0.40;;;-2.20;99.70;;;;;;5073456;28;20021;-80
2021/12/25 02:30:53;;;;;;;0.77;0.20;;;-2.30;97.30;;;;;;5073476;28;20040;-80
2021/12/25 02:33:19;;;;;;;1.70;0.40;;;-2.30;99.90;;;;;;5073234;28;20075;-80
2021/12/25 02:35:45;;;;;;;0.70;0.30;;;-2.30;99.90;;;;;;5073334;28;20048;-80
2021/12/25 02:38:11;;;;;;;0.75;0.43;;;-2.30;89.80;;;;;;5072998;28;20039;-80
2021/12/25 02:40:50;;;;;;;0.55;0.30;;;-2.30;58.40;;;;;;5073110;28;20033;-80
2021/12/25 02:43:16;;;;;;;1.65;0.30;;;-2.30;34.00;;;;;;5072005;28;20028;-80
2021/12/25 02:45:42;;;;;;;0.63;0.43;;;-2.40;9.40;;;;;;5053182;28;20041;-80
2021/12/25 02:48:31;;;;;;;0.57;0.30;;;-2.40;1.00;;;;;;5052962;28;20096;-79
2021/12/25 02:50:57;;;;;;;0.65;0.30;;;-2.40;1.00;;;;;;5053255;28;20132;-80
2021/12/25 02:53:23;;;;;;;1.65;0.45;;;-2.40;1.00;;;;;;5035074;28;20467;-79
2021/12/25 02:55:49;;;;;;;0.82;0.50;;;-2.50;1.00;;;;;;5053172;28;20025;-80
2021/12/25 02:58:15;;;;;;;1.63;0.32;;;-2.60;1.00;;;;;;5052782;28;20434;-80
2021/12/25 03:00:53;;;;;;;1.75;0.25;;;-2.60;1.00;;;;;;5052893;28;20385;-80
2021/12/25 03:03:19;;;;;;;2.17;0.25;;;-2.70;1.00;;;;;;5052582;28;20017;-80
2021/12/25 03:05:45;;;;;;;0.82;0.30;;;-2.60;1.00;;;;;;5053208;28;20108;-79
2021/12/25 03:08:13;;;;;;;1.75;0.30;;;-2.70;1.00;;;;;;5034783;28;20587;-80
2021/12/25 03:10:40;;;;;;;0.65;0.10;;;-2.70;1.00;;;;;;5034451;28;20029;-80
2021/12/25 03:15:54;;;;;;;1.38;0.47;;;-2.80;1.00;;;;;;5053161;28;20075;-80
2021/12/25 03:18:23;;;;;;;3.15;0.20;;;-2.80;1.00;;;;;;5053209;28;20025;-80
2021/12/25 03:20:52;;;;;;;1.23;0.20;;;-2.90;1.00;;;;;;5034978;28;20029;-79
2021/12/25 03:23:21;;;;;;;0.63;0.30;;;-2.80;1.00;;;;;;5052617;28;20079;-79
2021/12/25 03:25:49;;;;;;;3.15;0.30;;;-2.90;1.00;;;;;;5052723;28;20481;-79
2021/12/25 03:28:16;;;;;;;2.95;0.22;;;-3.00;1.00;;;;;;5052824;28;20039;-79
2021/12/25 03:30:43;;;;;;;1.83;0.60;;;-3.00;1.00;;;;;;5052627;28;20027;-79
2021/12/25 03:33:11;;;;;;;1.83;0.22;;;-3.10;1.00;;;;;;5052926;28;20024;-80
2021/12/25 03:35:37;;;;;;;0.95;0.30;;;-3.10;1.00;;;;;;5034745;28;20070;-80
2021/12/25 03:38:09;;;;;;;2.42;0.40;;;-3.10;1.00;;;;;;5034861;28;20025;-80
2021/12/25 03:40:36;;;;;;;2.95;0.47;;;-3.10;1.00;;;;;;5052503;28;20074;-79
2021/12/25 03:43:03;;;;;;;2.22;0.47;;;-3.20;1.00;;;;;;5052703;28;20074;-80
2021/12/25 03:45:31;;;;;;;2.42;0.30;;;-3.20;1.00;;;;;;5052124;28;20049;-80
2021/12/25 03:48:08;;;;;;;2.67;0.50;;;-3.10;1.00;;;;;;5052884;28;20013;-79
2021/12/25 03:58:52;;;;;;;3.10;0.55;;;-3.40;1.00;;;;;;5052807;28;20036;-79
2021/12/25 04:01:44;;;;;;;2.97;0.40;;;-3.40;1.00;;;;;;5052405;28;20044;-79
2021/12/25 04:04:18;;;;;;;0.28;0.15;;;-3.40;1.00;;;;;;5052883;28;20037;-79
2021/12/25 04:06:51;;;;;;;2.60;0.25;;;-3.50;1.00;;;;;;5034461;28;20029;-79
2021/12/25 04:09:24;;;;;;;0.60;0.20;;;-3.50;1.00;;;;;;5052700;28;20048;-80
2021/12/25 04:11:50;;;;;;;1.95;0.40;;;-3.50;1.00;;;;;;5052576;28;20017;-80
2021/12/25 04:14:16;;;;;;;0.10;0.00;;;-3.50;1.00;;;;;;5052509;28;20472;-80
2021/12/25 04:16:42;;;;;;;1.70;0.40;;;-3.60;1.00;;;;;;5034356;28;20025;-80
2021/12/25 04:19:08;;;;;;;0.70;0.28;;;-3.60;1.00;;;;;;5051853;28;20021;-79
2021/12/25 04:21:35;;;;;;;0.95;0.40;;;-3.60;1.00;;;;;;5051933;28;20120;-80
2021/12/25 04:24:02;;;;;;;0.25;0.22;;;-3.70;1.00;;;;;;5055737;28;20107;-79
2021/12/25 04:26:27;;;;;;;0.45;0.20;;;-3.60;1.00;;;;;;5037879;28;20024;-79
2021/12/25 04:29:05;;;;;;;0.43;0.20;;;-3.70;1.00;;;;;;5055565;28;20381;-80
2021/12/25 04:32:00;;;;;;;0.47;0.20;;;-3.80;1.00;;;;;;5055936;28;20108;-79
2021/12/25 04:48:40;;;;;;;0.13;0.08;;;-3.90;1.00;;;;;;5075489;28;20035;-79
2021/12/25 05:04:13;;;;;;;0.52;0.30;;;-3.90;1.00;;;;;;5075221;28;20189;-79
2021/12/25 05:06:39;;;;;;;0.52;0.10;;;-4.10;1.00;;;;;;5075339;28;20022;-79
2021/12/25 05:09:05;;;;;;;0.40;0.10;;;-4.20;1.00;;;;;;5057185;28;20024;-79
2021/12/25 05:11:30;;;;;;;1.17;0.50;;;-4.10;1.00;;;;;;5075016;28;20028;-79
2021/12/25 05:13:56;;;;;;;2.45;0.45;;;-4.10;1.00;;;;;;5074928;28;20028;-80
2021/12/25 05:16:22;;;;;;;0.60;0.20;;;-4.30;1.00;;;;;;5056890;28;20035;-80
2021/12/25 05:18:49;;;;;;;0.80;0.10;;;-4.30;1.00;;;;;;5056962;28;20488;-79
2021/12/25 05:21:15;;;;;;;0.50;0.20;;;-4.30;1.00;;;;;;5056930;28;20062;-79
2021/12/25 05:23:41;;;;;;;1.63;0.45;;;-4.20;1.00;;;;;;5074618;28;20047;-79
2021/12/25 05:26:07;;;;;;;0.70;0.10;;;-4.30;1.00;;;;;;5074679;28;20032;-79
2021/12/25 05:28:41;;;;;;;0.80;0.10;;;-4.50;1.00;;;;;;5074513;28;20025;-79
2021/12/25 05:31:08;;;;;;;0.10;0.10;;;-4.40;1.00;;;;;;5074902;28;20147;-79
2021/12/25 05:33:34;;;;;;;0.30;0.13;;;-4.30;1.00;;;;;;5074480;28;20036;-79
2021/12/25 05:36:01;;;;;;;0.57;0.17;;;-4.20;1.00;;;;;;5074322;28;20028;-79
2021/12/25 05:38:26;;;;;;;0.20;0.20;;;-4.50;1.00;;;;;;5074515;28;20419;-79
2021/12/25 05:40:52;;;;;;;0.32;0.10;;;-4.40;1.00;;;;;;5074468;28;20027;-79
2021/12/25 05:43:18;;;;;;;0.70;0.13;;;-4.30;1.00;;;;;;5074290;28;20035;-79
2021/12/25 05:45:44;;;;;;;0.43;0.10;;;-4.20;1.00;;;;;;5074332;28;20021;-79
2021/12/25 05:48:10;;;;;;;0.32;0.00;;;-4.20;1.00;;;;;;5074439;28;20058;-79
2021/12/25 05:50:36;;;;;;;1.25;0.17;;;-4.40;1.00;;;;;;5074132;28;20028;-79
2021/12/25 05:53:03;;;;;;;1.02;0.10;;;-4.40;1.00;;;;;;5056161;28;20024;-79
2021/12/25 05:55:29;;;;;;;0.65;0.10;;;-4.30;1.00;;;;;;5074041;28;20111;-80
2021/12/25 05:57:55;;;;;;;0.25;0.20;;;-4.20;1.00;;;;;;5078587;28;20096;-79
2021/12/25 06:00:22;;;;;;;0.22;0.20;;;-4.20;1.00;;;;;;5094644;28;20020;-79
2021/12/25 06:02:48;;;;;;;0.60;0.10;;;-4.30;1.00;;;;;;5094552;28;20052;-79
2021/12/25 06:05:14;;;;;;;0.43;0.10;;;-4.40;1.00;;;;;;5094434;28;20024;-79
2021/12/25 06:07:40;;;;;;;4.18;0.17;;;-4.40;1.00;;;;;;5094380;28;20020;-79
2021/12/25 06:10:09;;;;;;;0.70;0.20;;;-4.40;1.00;;;;;;5094165;28;20023;-79
2021/12/25 06:12:36;;;;;;;0.15;0.10;;;-4.30;1.00;;;;;;5094537;28;20099;-79
2021/12/25 06:15:02;;;;;;;2.40;0.30;;;-4.30;1.00;;;;;;5094431;28;20095;-79
2021/12/25 06:17:29;;;;;;;0.28;0.20;;;-4.40;1.00;;;;;;5095012;28;20028;-78
2021/12/25 06:19:55;;;;;;;1.88;0.25;;;-4.50;1.00;;;;;;5094554;28;20019;-79
2021/12/25 06:22:20;;;;;;;0.77;0.30;;;-4.50;1.00;;;;;;5093899;28;20020;-78
2021/12/25 06:24:49;;;;;;;0.03;0.03;;;-4.50;1.00;;;;;;5094404;28;20694;-79
2021/12/25 06:27:19;;;;;;;0.32;0.20;;;-4.60;1.00;;;;;;5094426;28;20020;-79
2021/12/25 06:29:45;;;;;;;0.20;0.10;;;-4.50;1.00;;;;;;5094309;28;20020;-78
2021/12/25 06:32:11;;;;;;;0.63;0.20;;;-4.50;1.00;;;;;;5094002;28;20016;-78
2021/12/25 06:34:37;;;;;;;0.10;0.10;;;-4.50;1.00;;;;;;5094010;28;20410;-78
2021/12/25 06:37:03;;;;;;;0.10;0.10;;;-4.50;1.00;;;;;;5083808;28;20531;-79
2021/12/25 06:39:29;;;;;;;0.22;0.13;;;-4.50;1.00;;;;;;5076141;28;20024;-78
2021/12/25 06:41:55;;;;;;;0.73;0.30;;;-4.60;1.00;;;;;;5076715;28;20373;-78
2021/12/25 06:44:24;;;;;;;0.52;0.20;;;-4.60;1.00;;;;;;5074146;28;20052;-78
2021/12/25 06:46:51;;;;;;;1.35;0.90;;;-4.70;1.00;;;;;;5072513;28;20073;-78
2021/12/25 06:49:16;;;;;;;0.77;0.10;;;-4.70;1.00;;;;;;5073522;28;20429;-78
2021/12/25 06:51:42;;;;;;;0.35;0.10;;;-4.60;1.00;;;;;;5050907;28;20033;-78
2021/12/25 06:54:08;;;;;;;0.63;0.32;;;-4.60;1.00;;;;;;5056100;28;20154;-78
2021/12/25 06:56:33;;;;;;;0.88;0.50;;;-4.80;1.00;;;;;;5035415;28;20029;-78
2021/12/25 06:58:59;;;;;;;0.45;0.28;;;-4.60;1.00;;;;;;5035653;28;20469;-78
2021/12/25 07:01:24;;;;;;;2.83;0.30;;;-4.60;1.00;;;;;;5035372;28;20031;-77
2021/12/25 07:03:50;;;;;;;0.22;0.10;;;-4.70;1.00;;;;;;5070741;28;20038;-78
2021/12/25 07:06:16;;;;;;;0.47;0.20;;;-4.70;1.00;;;;;;5054820;28;20079;-78
2021/12/25 07:08:41;;;;;;;0.25;0.20;;;-4.70;1.00;;;;;;5049412;28;20017;-78
2021/12/25 07:11:07;;;;;;;0.85;0.10;;;-4.80;1.00;;;;;;5061547;28;20028;-78
2021/12/25 07:13:33;;;;;;;0.10;0.10;;;-4.90;1.00;;;;;;5052881;28;20484;-78
2021/12/25 07:15:58;;;;;;;1.70;0.10;;;-4.80;1.00;;;;;;5035007;28;20025;-78
2021/12/25 07:18:24;;;;;;;1.20;0.50;;;-4.80;1.00;;;;;;5052675;28;20032;-78
2021/12/25 07:20:51;;;;;;;0.73;0.20;;;-4.70;1.00;;;;;;5069597;28;20099;-78
2021/12/25 07:23:18;;;;;;;1.52;0.20;;;-4.70;1.00;;;;;;5072712;28;20024;-78
2021/12/25 07:25:44;;;;;;;0.20;0.10;;;-4.90;1.00;;;;;;5072614;28;20021;-78
2021/12/25 07:28:10;;;;;;;2.25;0.43;;;-4.90;1.00;;;;;;5073326;28;20036;-77
2021/12/25 07:30:36;;;;;;;0.40;0.22;;;-4.80;1.00;;;;;;5073088;28;20021;-78
2021/12/25 07:33:02;;;;;;;0.10;0.10;;;-4.90;1.00;;;;;;5073000;28;20032;-78
2021/12/25 07:35:28;;;;;;;0.20;0.20;;;-4.90;1.00;;;;;;5071251;28;20056;-79
2021/12/25 07:37:54;;;;;;;1.48;0.17;;;-4.90;1.00;;;;;;5070850;28;20051;-78
2021/12/25 07:40:20;;;;;;;1.58;0.55;;;-4.80;1.00;;;;;;5070743;28;20104;-79
2021/12/25 07:42:45;;;;;;;0.28;0.10;;;-4.90;1.00;;;;;;5052342;28;20111;-79
2021/12/25 07:45:12;;;;;;;0.10;0.10;;;-4.80;1.00;;;;;;5051843;28;20045;-79
2021/12/25 07:47:41;;;;;;;1.40;0.20;;;-4.90;1.00;;;;;;5070630;28;20364;-78
2021/12/25 07:50:09;;;;;;;0.10;0.00;;;-4.90;1.00;;;;;;5051179;28;20484;-79
2021/12/25 07:52:34;;;;;;;0.75;0.55;;;-5.00;1.00;;;;;;5050432;28;20362;-79
2021/12/25 07:55:00;;;;;;;0.60;0.25;;;-5.00;1.00;;;;;;5032723;28;20506;-79
2021/12/25 07:57:25;;;;;;;1.27;0.13;;;-4.90;1.00;;;;;;5051298;28;20057;-78
2021/12/25 07:59:51;;;;;;;0.55;0.10;;;-4.90;1.00;;;;;;5054360;28;20017;-78
2021/12/25 08:02:17;;;;;;;0.13;0.13;;;-5.00;1.00;;;;;;5073745;28;20111;-79
2021/12/25 08:04:42;;;;;;;1.33;0.10;;;-5.00;1.00;;;;;;5076758;28;20033;-79
2021/12/25 08:07:08;;;;;;;0.70;0.05;;;-4.90;1.00;;;;;;5074156;28;20031;-79
2021/12/25 08:09:35;;;;;;;0.30;0.20;;;-4.80;1.00;;;;;;5054959;28;20017;-80
2021/12/25 08:12:02;;;;;;;1.30;0.20;;;-4.80;1.00;;;;;;5056410;28;20388;-79
2021/12/25 08:14:28;;;;;;;0.03;0.00;;;-4.90;1.00;;;;;;5047759;28;20067;-81
2021/12/25 08:17:00;;;;;;;0.75;0.10;;;-4.90;1.00;;;;;;5056399;28;20476;-80
2021/12/25 08:19:25;;;;;;;0.75;0.40;;;-4.90;1.00;;;;;;5057546;28;20611;-81
2021/12/25 08:21:51;;;;;;;1.65;0.13;;;-4.80;1.00;;;;;;5075914;28;20111;-79
2021/12/25 08:24:18;;;;;;;1.00;0.30;;;-4.80;1.00;;;;;;5058071;28;20027;-80
2021/12/25 08:26:44;;;;;;;0.17;0.10;;;-4.80;1.00;;;;;;5076422;28;20051;-81
2021/12/25 08:29:10;;;;;;;2.50;0.30;;;-4.60;1.00;;;;;;5058436;28;20024;-80
2021/12/25 08:31:36;;;;;;;2.13;0.43;;;-4.70;1.00;;;;;;5076488;28;20032;-81
2021/12/25 08:34:02;;;;;;;0.38;0.10;;;-4.70;1.00;;;;;;5076338;28;20024;-81
2021/12/25 08:36:28;;;;;;;0.95;0.20;;;-4.60;1.00;;;;;;5076581;28;20029;-81
2021/12/25 08:38:54;;;;;;;1.02;0.50;;;-4.70;1.00;;;;;;5075979;28;20381;-80
2021/12/25 08:41:21;;;;;;;1.10;0.35;;;-4.50;1.00;;;;;;5096521;28;20556;-81
2021/12/25 08:43:48;;;;;;;0.52;0.20;;;-4.60;1.00;;;;;;5079464;28;20467;-81
2021/12/25 08:46:18;;;;;;;0.35;0.22;;;-4.50;1.00;;;;;;5076652;28;20059;-79
2021/12/25 08:48:45;;;;;;;2.80;0.20;;;-4.40;1.00;;;;;;5055123;28;20021;-78
2021/12/25 08:51:12;;;;;;;1.30;0.50;;;-4.40;1.00;;;;;;5090207;28;20020;-78
2021/12/25 08:53:38;;;;;;;0.35;0.20;;;-4.50;1.00;;;;;;5090690;28;20024;-78
2021/12/25 08:56:04;;;;;;;1.15;0.10;;;-4.50;1.00;;;;;;5066168;28;20025;-79
2021/12/25 08:58:31;;;;;;;0.68;0.17;;;-4.30;1.00;;;;;;5064549;28;20082;-78
2021/12/25 09:01:01;;;;;;;1.48;0.28;;;-4.10;1.00;;;;;;5066696;28;20016;-78
2021/12/25 09:03:29;;;;;;;1.20;0.40;;;-4.20;1.00;;;;;;5079593;28;20028;-80
2021/12/25 09:06:00;;;;;;;0.98;0.40;;;-4.00;1.00;;;;;;5055532;28;20025;-79
2021/12/25 09:08:26;;;;;;;3.67;0.50;;;-4.20;1.00;;;;;;5076928;28;20024;-81
2021/12/25 09:10:53;;;;;;;0.43;0.40;;;-4.10;1.00;;;;;;5094846;28;20016;-80
2021/12/25 09:13:18;;;;;;;6.30;0.30;;;-4.00;1.00;;;;;;5095338;28;20469;-82
2021/12/25 09:15:44;;;;;;;1.30;0.38;;;-4.00;1.00;;;;;;5058320;28;20540;-81
2021/12/25 09:18:09;;;;;;;2.35;0.28;;;-3.90;1.00;;;;;;5083344;28;20028;-80
2021/12/25 09:20:38;;;;;;;0.20;0.20;;;-3.80;1.00;;;;;;5075980;28;20019;-80
2021/12/25 09:23:04;;;;;;;1.58;0.30;;;-3.90;1.00;;;;;;5064599;28;20032;-81
2021/12/25 09:25:29;;;;;;;4.50;0.35;;;-3.70;1.00;;;;;;5061191;28;20017;-80
2021/12/25 09:27:55;;;;;;;3.72;0.30;;;-3.60;1.00;;;;;;5075624;28;20475;-80
2021/12/25 09:30:21;;;;;;;0.52;0.40;;;-3.50;1.00;;;;;;5078578;28;20050;-79
2021/12/25 09:32:47;;;;;;;0.32;0.20;;;-3.40;1.00;;;;;;5041951;28;20476;-80
2021/12/25 09:35:13;;;;;;;2.85;0.32;;;-3.60;1.00;;;;;;5060660;28;20041;-80
2021/12/25 09:37:39;;;;;;;0.38;0.20;;;-3.50;1.00;;;;;;5062287;28;20036;-78
2021/12/25 09:40:07;;;;;;;1.90;0.45;;;-3.40;1.00;;;;;;5044911;28;20051;-78
2021/12/25 09:42:33;;;;;;;1.75;0.40;;;-3.30;1.00;;;;;;5064107;28;20096;-79
2021/12/25 09:44:59;;;;;;;0.65;0.20;;;-3.40;1.00;;;;;;5061776;28;20044;-79
2021/12/25 09:47:26;;;;;;;1.85;0.17;;;-3.50;1.00;;;;;;5067113;28;20553;-80
2021/12/25 09:49:52;;;;;;;0.47;0.20;;;-3.30;1.00;;;;;;5066978;28;20078;-80
2021/12/25 09:52:17;;;;;;;0.57;0.20;;;-3.20;1.00;;;;;;5049945;28;20020;-78
2021/12/25 09:54:43;;;;;;;0.95;0.15;;;-3.30;1.00;;;;;;5078539;28;20345;-79
2021/12/25 09:57:09;;;;;;;1.52;0.70;;;-3.30;1.00;;;;;;5039222;28;20056;-80
2021/12/25 09:59:35;;;;;;;2.25;0.40;;;-3.30;1.00;;;;;;5044690;28;20491;-79
2021/12/25 10:02:02;;;;;;;1.17;0.20;;;-3.10;1.00;;;;;;5066699;28;20039;-80
2021/12/25 10:04:37;;;;;;;1.20;0.30;;;-3.20;1.00;;;;;;5047577;28;20392;-80
2021/12/25 10:07:25;;;;;;;1.00;0.20;;;-3.10;1.00;;;;;;5043985;28;20027;-79
2021/12/25 10:10:04;;;;;;;2.08;0.55;;;-3.10;1.00;;;;;;5060258;28;20465;-79
2021/12/25 10:12:47;;;;;;;1.33;0.20;;;-3.00;1.00;;;;;;5044579;28;20086;-80
2021/12/25 10:15:22;;;;;;;2.35;0.40;;;-3.00;1.00;;;;;;5051068;28;20032;-77
2021/12/25 10:17:50;;;;;;;2.70;0.20;;;-2.90;1.00;;;;;;5050469;28;20033;-77
2021/12/25 10:20:21;;;;;;;0.68;0.10;;;-2.90;1.00;;;;;;5065085;28;20040;-77
2021/12/25 10:23:13;;;;;;;0.73;0.22;;;-2.90;1.00;;;;;;5071677;28;20024;-77
2021/12/25 10:25:57;;;;;;;0.25;0.20;;;-3.00;1.00;;;;;;5041020;28;20033;-78
2021/12/25 10:28:27;;;;;;;0.80;0.10;;;-2.90;1.00;;;;;;5072274;28;20048;-78
2021/12/25 10:31:02;;;;;;;0.45;0.30;;;-3.00;1.00;;;;;;5053417;28;20407;-77
2021/12/25 10:33:35;;;;;;;3.10;0.28;;;-2.90;1.00;;;;;;5054408;28;20568;-78
2021/12/25 10:36:24;;;;;;;0.75;0.32;;;-3.00;1.00;;;;;;5055572;28;20040;-78
2021/12/25 10:39:04;;;;;;;2.13;1.08;;;-2.90;1.00;;;;;;5070601;28;20398;-78
2021/12/25 10:41:31;;;;;;;0.80;0.50;;;-2.80;1.00;;;;;;5059120;28;20083;-77
2021/12/25 10:44:13;;;;;;;2.08;0.20;;;-2.70;1.00;;;;;;5055100;28;20488;-77
2021/12/25 10:46:54;;;;;;;0.57;0.17;;;-2.70;1.00;;;;;;5053641;28;20060;-78
2021/12/25 10:49:21;;;;;;;3.55;0.57;;;-2.70;1.00;;;;;;5052736;28;20024;-78
2021/12/25 10:51:48;;;;;;;1.65;0.43;;;-2.60;1.00;;;;;;5033631;28;20453;-79
2021/12/25 10:54:15;;;;;;;1.25;0.60;;;-2.60;1.00;;;;;;5037647;28;20031;-80
2021/12/25 10:56:43;;;;;;;0.75;0.30;;;-2.50;1.00;;;;;;5052878;28;20396;-80
2021/12/25 10:59:12;;;;;;;1.00;0.25;;;-2.60;1.00;;;;;;5059831;28;20116;-80
2021/12/25 11:01:44;;;;;;;0.45;0.25;;;-2.50;1.00;;;;;;5074184;28;20027;-80
2021/12/25 11:04:36;;;;;;;2.80;0.75;;;-2.50;1.00;;;;;;5053590;28;20404;-79
2021/12/25 11:07:15;;;;;;;1.08;0.38;;;-2.40;1.00;;;;;;5066052;28;20090;-78
2021/12/25 11:10:05;;;;;;;1.63;0.65;;;-2.50;1.00;;;;;;5052563;28;20021;-77
2021/12/25 11:12:31;;;;;;;0.70;0.30;;;-2.20;1.00;;;;;;5055816;28;20460;-79
2021/12/25 11:15:21;;;;;;;1.23;0.30;;;-2.20;1.00;;;;;;5051489;28;20025;-77
2021/12/25 11:17:52;;;;;;;0.70;0.40;;;-2.30;1.00;;;;;;5063075;28;20070;-77
2021/12/25 11:20:28;;;;;;;1.50;0.50;;;-2.20;1.00;;;;;;5059874;28;20028;-78
2021/12/25 11:22:56;;;;;;;0.70;0.40;;;-2.20;1.00;;;;;;5075037;28;20020;-78
2021/12/25 11:25:25;;;;;;;0.30;0.20;;;-2.20;1.00;;;;;;5091529;28;20075;-78
2021/12/25 11:27:53;;;;;;;0.98;0.20;;;-2.30;1.00;;;;;;5077676;28;20099;-80
2021/12/25 11:30:20;;;;;;;0.22;0.20;;;-2.20;1.00;;;;;;5064685;28;20021;-80
2021/12/25 11:32:47;;;;;;;0.28;0.10;;;-2.20;1.00;;;;;;5070950;28;20024;-80
2021/12/25 11:35:15;;;;;;;0.47;0.28;;;-2.20;1.00;;;;;;5068867;28;20119;-80
2021/12/25 11:37:41;;;;;;;0.82;0.30;;;-2.00;1.00;;;;;;5061883;28;20016;-80
2021/12/25 11:40:09;;;;;;;1.20;0.22;;;-2.20;1.00;;;;;;5068143;28;20020;-82
2021/12/25 11:42:41;;;;;;;1.40;0.60;;;-2.20;1.00;;;;;;5060181;28;20025;-81
2021/12/25 11:45:17;;;;;;;1.13;0.50;;;-2.00;1.00;;;;;;5065664;28;20136;-81
2021/12/25 11:47:48;;;;;;;0.63;0.32;;;-2.10;1.00;;;;;;5071745;28;20556;-81
2021/12/25 11:50:41;;;;;;;1.30;0.30;;;-2.20;1.00;;;;;;5062775;28;20028;-81
2021/12/25 11:53:19;;;;;;;0.90;0.30;;;-2.10;1.00;;;;;;5063240;28;20088;-81
2021/12/25 11:56:13;;;;;;;0.60;0.20;;;-2.10;1.00;;;;;;5063509;28;20029;-82
2021/12/25 11:58:39;;;;;;;0.65;0.40;;;-2.00;1.00;;;;;;5074134;28;20653;-82
2021/12/25 12:01:32;;;;;;;1.58;0.57;;;-2.00;1.00;;;;;;5073468;28;20472;-82
2021/12/25 12:04:10;;;;;;;0.52;0.40;;;-2.00;1.00;;;;;;5063248;28;20104;-83
2021/12/25 12:06:47;;;;;;;1.33;0.40;;;-1.90;1.00;;;;;;5046468;28;20024;-81
2021/12/25 12:09:39;;;;;;;0.70;0.22;;;-1.90;1.00;;;;;;5061417;28;20028;-87
2021/12/25 12:12:10;;;;;;;0.40;0.20;;;-1.60;1.00;;;;;;5058320;28;20036;-79
2021/12/25 12:14:36;;;;;;;0.65;0.20;;;-1.80;1.00;;;;;;5058731;28;20473;-79
2021/12/25 12:17:06;;;;;;;1.73;0.30;;;-1.50;1.00;;;;;;5062251;28;20029;-80
2021/12/25 12:19:38;;;;;;;2.38;0.47;;;-1.70;1.00;;;;;;5042000;28;20025;-86
2021/12/25 12:22:22;;;;;;;0.85;0.30;;;-1.70;1.00;;;;;;5062466;28;20037;-81
2021/12/25 12:25:27;;;;;;;2.25;0.47;;;-1.60;1.00;;;;;;5055522;28;20029;-82
2021/12/25 12:28:00;;;;;;;0.85;0.85;;;-1.60;1.00;;;;;;5053546;28;20036;-78
2021/12/25 12:30:32;;;;;;;4.97;0.73;;;-1.50;1.00;;;;;;5074384;28;20035;-78
2021/12/25 12:32:59;;;;;;;0.60;0.30;;;-1.70;1.00;;;;;;5057341;28;20456;-78
2021/12/25 12:35:35;;;;;;;0.90;0.45;;;-1.70;1.00;;;;;;5075040;28;20021;-79
2021/12/25 12:38:22;;;;;;;2.63;0.40;;;-1.70;1.00;;;;;;5074796;28;20044;-80
2021/12/25 12:41:22;;;;;;;0.20;0.20;;;-1.70;1.00;;;;;;5057898;28;20060;-79
2021/12/25 12:44:23;;;;;;;0.30;0.20;;;-1.70;1.00;;;;;;5055774;28;20716;-80
2021/12/25 12:46:53;;;;;;;0.20;0.20;;;-1.60;1.00;;;;;;5036872;28;20120;-79
2021/12/25 12:49:21;;;;;;;1.20;0.35;;;-1.70;1.00;;;;;;5069477;28;20115;-79
2021/12/25 12:52:08;;;;;;;1.08;0.30;;;-1.70;1.00;;;;;;5056241;28;20024;-79
2021/12/25 12:54:47;;;;;;;1.27;0.60;;;-1.60;1.00;;;;;;5073831;28;20036;-79
2021/12/25 12:57:45;;;;;;;1.30;0.30;;;-1.60;1.00;;;;;;5075320;28;20035;-81
2021/12/25 13:00:25;;;;;;;1.10;0.40;;;-1.50;1.00;;;;;;5054590;28;20055;-79
2021/12/25 13:02:55;;;;;;;1.37;0.20;;;-1.60;1.00;;;;;;5050614;28;20040;-79
2021/12/25 13:05:31;;;;;;;1.17;0.40;;;-1.50;1.00;;;;;;5084709;28;20043;-81
2021/12/25 13:07:59;;;;;;;1.52;0.25;;;-1.50;1.00;;;;;;5084058;28;20104;-81
2021/12/25 13:10:42;;;;;;;1.10;0.60;;;-1.40;1.00;;;;;;5076829;28;20353;-80
2021/12/25 13:13:18;;;;;;;1.63;0.30;;;-1.40;1.00;;;;;;5058026;28;20090;-81
2021/12/25 13:15:48;;;;;;;1.52;0.70;;;-1.40;1.00;;;;;;5058639;28;20024;-81
2021/12/25 13:18:15;;;;;;;0.95;0.63;;;-1.40;1.00;;;;;;5073703;28;20537;-81
2021/12/25 13:20:50;;;;;;;2.05;0.40;;;-1.50;1.00;;;;;;5055607;28;20074;-82
2021/12/25 13:23:19;;;;;;;1.33;0.52;;;-1.50;1.00;;;;;;5074063;28;20032;-81
2021/12/25 13:26:04;;;;;;;0.40;0.40;;;-1.60;1.00;;;;;;5073423;28;20052;-82
2021/12/25 13:28:37;;;;;;;0.30;0.30;;;-1.60;1.00;;;;;;5074095;28;20075;-81
2021/12/25 13:31:07;;;;;;;0.88;0.30;;;-1.60;1.00;;;;;;5072964;28;20021;-81
2021/12/25 13:33:38;;;;;;;1.08;0.40;;;-1.60;1.00;;;;;;5076760;28;20024;-81
2021/12/25 13:36:11;;;;;;;0.77;0.38;;;-1.70;1.00;;;;;;5074405;28;20029;-82
2021/12/25 13:38:58;;;;;;;0.52;0.20;;;-1.70;1.00;;;;;;5059133;28;20032;-80
2021/12/25 13:41:40;;;;;;;1.25;0.35;;;-1.70;1.00;;;;;;5076554;28;20016;-82
2021/12/25 13:44:14;;;;;;;2.53;0.40;;;-1.70;1.00;;;;;;5056148;28;20037;-80
2021/12/25 13:46:58;;;;;;;1.75;0.60;;;-1.60;1.00;;;;;;5048767;28;20320;-81
2021/12/25 13:49:36;;;;;;;1.58;0.47;;;-1.80;1.00;;;;;;5066770;28;20507;-81
2021/12/25 13:52:09;;;;;;;0.85;0.80;;;-1.70;1.00;;;;;;5068798;28;20021;-82
2021/12/25 13:54:41;;;;;;;1.55;0.30;;;-1.70;1.00;;;;;;5059879;28;20027;-81
2021/12/25 13:57:09;;;;;;;1.95;0.55;;;-1.80;1.00;;;;;;5071560;28;20040;-81
2021/12/25 13:59:35;;;;;;;0.77;0.55;;;-1.80;1.00;;;;;;5075994;28;20021;-81
2021/12/25 14:02:05;;;;;;;4.18;0.50;;;-1.90;1.00;;;;;;5076748;28;20036;-82
2021/12/25 14:04:31;;;;;;;2.97;0.60;;;-1.90;1.00;;;;;;5055296;28;20455;-82
2021/12/25 14:06:58;;;;;;;1.33;0.50;;;-2.00;1.00;;;;;;5059976;28;20627;-82
2021/12/25 14:09:23;;;;;;;1.80;0.73;;;-2.00;1.00;;;;;;5079165;28;20027;-82
2021/12/25 14:11:54;;;;;;;1.08;0.28;;;-1.90;1.00;;;;;;5081944;28;20020;-81
2021/12/25 14:14:21;;;;;;;1.48;0.50;;;-1.90;1.00;;;;;;5072535;28;20068;-82
2021/12/25 14:16:47;;;;;;;1.23;0.52;;;-2.00;1.00;;;;;;5070782;28;20021;-82
2021/12/25 14:19:13;;;;;;;0.52;0.40;;;-2.00;1.00;;;;;;5064310;28;20013;-79